Weso, Nevada
Current Conditions -  °F | °C
As of 2:56 AM on Monday 22 Dec 2014 (Local Time) from KWMC Reporting Station
Overcast Overcast  
Wind Chill: 50°   Ceiling: 4500
Heat Index: 50°   Visibility: 10mi
Dew Point: 39°   Wind: 13mph
Humidity: 66%   Direction: 230°SW
Pressure: 30.18"   Gusts: NA
Location:  41.1353°N, 118.186°W
Report Text: KWMC 221056Z AUTO 23011KT 10SM OVC045 10/04 A3018 RMK AO2 SLP201 T01000039
Loading
Personal Weather Stations






























Interactive Weather Map New forecast layout! Learn more

10-Day Weather Forecast

Advertisements
Track Severe Weather on mobile